createdAt,value
2022-11-10T00:00:06.748Z,13.50
2022-11-10T00:03:08.450Z,13.40
2022-11-10T00:06:07.753Z,13.50
2022-11-10T00:09:01.199Z,13.50
2022-11-10T00:11:54.650Z,13.40
2022-11-10T00:15:06.806Z,13.40
2022-11-10T00:18:05.175Z,13.40
2022-11-10T00:21:04.996Z,13.50
2022-11-10T00:23:58.408Z,13.50
2022-11-10T00:26:52.407Z,13.50
2022-11-10T00:29:46.241Z,13.50
2022-11-10T00:32:39.557Z,13.50
2022-11-10T00:35:33.195Z,13.50
2022-11-10T00:38:26.631Z,13.50
2022-11-10T00:41:21.034Z,13.50
2022-11-10T00:44:14.472Z,13.50
2022-11-10T00:47:08.312Z,13.50
2022-11-10T00:50:01.886Z,13.40
2022-11-10T00:52:55.203Z,13.40
2022-11-10T00:55:49.076Z,13.30
2022-11-10T00:58:42.534Z,13.20
2022-11-10T01:01:36.199Z,13.20
2022-11-10T01:04:29.363Z,13.10
2022-11-10T01:07:22.513Z,13.20
2022-11-10T01:10:16.572Z,13.00
2022-11-10T01:13:09.884Z,12.90
2022-11-10T01:16:08.359Z,12.90
2022-11-10T01:19:03.299Z,12.90
2022-11-10T01:21:56.733Z,12.90
2022-11-10T01:24:50.049Z,12.90
2022-11-10T01:27:43.632Z,12.90
2022-11-10T01:30:37.334Z,12.80
2022-11-10T01:33:31.368Z,12.80
2022-11-10T01:36:24.602Z,12.80
2022-11-10T01:39:18.204Z,12.70
2022-11-10T01:42:12.757Z,12.70
2022-11-10T01:45:24.625Z,12.70
2022-11-10T01:48:31.008Z,12.60
2022-11-10T01:51:37.617Z,12.50
2022-11-10T01:54:41.841Z,12.50
2022-11-10T01:57:37.107Z,12.50
2022-11-10T02:00:30.410Z,12.50
2022-11-10T02:03:42.782Z,12.50
2022-11-10T02:06:41.304Z,12.50
2022-11-10T02:09:34.483Z,12.40
2022-11-10T02:12:37.063Z,12.40
2022-11-10T02:15:33.077Z,12.40
2022-11-10T02:18:26.627Z,12.30
2022-11-10T02:21:21.298Z,12.30
2022-11-10T02:24:14.618Z,12.20
2022-11-10T02:27:07.971Z,12.20
2022-11-10T02:30:01.802Z,12.10
2022-11-10T02:32:55.121Z,12.10
2022-11-10T02:35:48.616Z,12.10
2022-11-10T02:38:42.316Z,12.10
2022-11-10T02:41:35.983Z,12.00
2022-11-10T02:44:29.627Z,12.00
2022-11-10T02:47:23.530Z,11.90
2022-11-10T02:50:16.925Z,11.90
2022-11-10T02:53:10.557Z,11.80
2022-11-10T02:56:04.125Z,11.70
2022-11-10T02:58:57.491Z,11.70
2022-11-10T03:01:50.811Z,11.60
2022-11-10T03:04:44.294Z,11.50
2022-11-10T03:07:37.843Z,11.50
2022-11-10T03:10:31.432Z,11.40
2022-11-10T03:13:35.469Z,11.40
2022-11-10T03:16:38.827Z,11.40
2022-11-10T03:19:32.369Z,11.30
2022-11-10T03:22:25.901Z,11.30
2022-11-10T03:25:19.678Z,11.30
2022-11-10T03:28:13.611Z,11.30
2022-11-10T03:31:07.089Z,11.20
2022-11-10T03:34:00.714Z,11.20
2022-11-10T03:36:53.945Z,11.20
2022-11-10T03:39:47.561Z,11.20
2022-11-10T03:42:45.680Z,11.30
2022-11-10T03:45:39.129Z,11.30
2022-11-10T03:48:32.763Z,11.30
2022-11-10T03:51:26.335Z,11.30
2022-11-10T03:54:19.857Z,11.30
2022-11-10T03:57:13.505Z,11.30
2022-11-10T04:00:08.056Z,11.30
2022-11-10T04:03:01.837Z,11.30
2022-11-10T04:06:13.801Z,11.30
2022-11-10T04:09:08.365Z,11.40
2022-11-10T04:12:24.649Z,11.40
2022-11-10T04:15:37.255Z,11.40
2022-11-10T04:18:30.878Z,11.50
2022-11-10T04:21:24.053Z,11.60
2022-11-10T04:24:17.637Z,11.60
2022-11-10T04:27:11.180Z,11.70
2022-11-10T04:30:06.046Z,11.70
2022-11-10T04:32:59.343Z,11.70
2022-11-10T04:35:52.834Z,11.70
2022-11-10T04:38:46.763Z,11.70
2022-11-10T04:41:40.403Z,11.60
2022-11-10T04:44:34.164Z,11.60
2022-11-10T04:47:27.585Z,11.50
2022-11-10T04:50:21.503Z,11.50
2022-11-10T04:53:15.305Z,11.50
2022-11-10T04:56:20.598Z,11.50
2022-11-10T04:59:14.178Z,11.40
2022-11-10T05:02:07.389Z,11.40
2022-11-10T05:05:00.963Z,11.30
2022-11-10T05:07:54.538Z,11.30
2022-11-10T05:10:47.804Z,11.30
2022-11-10T05:13:41.588Z,11.30
2022-11-10T05:16:34.930Z,11.20
2022-11-10T05:19:28.381Z,11.20
2022-11-10T05:22:21.923Z,11.20
2022-11-10T05:25:15.435Z,11.10
2022-11-10T05:28:12.158Z,11.10
2022-11-10T05:31:06.575Z,11.10
2022-11-10T05:34:00.034Z,11.10
2022-11-10T05:36:53.584Z,11.00
2022-11-10T05:39:46.842Z,10.90
2022-11-10T05:42:45.906Z,10.90
2022-11-10T05:45:39.538Z,10.80
2022-11-10T05:48:33.013Z,10.80
2022-11-10T05:51:27.179Z,10.80
2022-11-10T05:54:20.445Z,10.80
2022-11-10T05:57:13.956Z,10.80
2022-11-10T06:00:08.365Z,10.70
2022-11-10T06:03:16.039Z,10.70
2022-11-10T06:06:09.671Z,10.70
2022-11-10T06:09:03.329Z,10.70
2022-11-10T06:11:57.137Z,10.70
2022-11-10T06:14:51.737Z,10.60
2022-11-10T06:17:45.462Z,10.60
2022-11-10T06:20:39.007Z,10.60
2022-11-10T06:23:32.207Z,10.60
2022-11-10T06:26:25.740Z,10.60
2022-11-10T06:29:24.099Z,10.50
2022-11-10T06:32:20.192Z,10.50
2022-11-10T06:35:13.974Z,10.50
2022-11-10T06:38:12.541Z,10.50
2022-11-10T06:41:06.217Z,10.50
2022-11-10T06:43:59.783Z,10.50
2022-11-10T06:46:53.395Z,10.40
2022-11-10T06:49:46.784Z,10.40
2022-11-10T06:52:40.406Z,10.40
2022-11-10T06:55:34.530Z,10.40
2022-11-10T06:58:28.175Z,10.50
2022-11-10T07:01:26.277Z,10.50
2022-11-10T07:04:21.126Z,10.50
2022-11-10T07:07:14.779Z,10.50
2022-11-10T07:10:08.422Z,10.60
2022-11-10T07:13:04.201Z,10.60
2022-11-10T07:15:57.659Z,10.70
2022-11-10T07:18:51.424Z,10.80
2022-11-10T07:21:45.006Z,10.80
2022-11-10T07:24:38.640Z,10.90
2022-11-10T07:27:32.290Z,10.90
2022-11-10T07:30:27.260Z,10.90
2022-11-10T07:33:21.288Z,11.00
2022-11-10T07:36:15.203Z,11.00
2022-11-10T07:39:08.863Z,11.00
2022-11-10T07:42:02.872Z,11.00
2022-11-10T07:44:56.209Z,11.00
2022-11-10T07:47:50.526Z,11.00
2022-11-10T07:50:44.454Z,11.00
2022-11-10T07:53:38.767Z,11.00
2022-11-10T07:56:32.024Z,11.00
2022-11-10T07:59:25.794Z,11.00
2022-11-10T08:02:19.075Z,11.10
2022-11-10T08:05:12.628Z,11.10
2022-11-10T08:08:06.906Z,11.00
2022-11-10T08:11:00.635Z,10.70
2022-11-10T08:13:53.870Z,11.10
2022-11-10T08:16:47.376Z,11.10
2022-11-10T08:19:40.906Z,11.20
2022-11-10T08:22:34.541Z,11.20
2022-11-10T08:25:34.900Z,11.20
2022-11-10T08:28:29.305Z,11.30
2022-11-10T08:31:23.678Z,11.30
2022-11-10T08:34:17.250Z,11.30
2022-11-10T08:37:10.808Z,11.40
2022-11-10T08:40:04.926Z,11.40
2022-11-10T08:43:00.247Z,11.50
2022-11-10T08:45:58.595Z,11.50
2022-11-10T08:48:51.899Z,11.50
2022-11-10T08:51:45.643Z,11.60
2022-11-10T08:54:39.025Z,11.70
2022-11-10T08:57:32.755Z,11.80
2022-11-10T09:00:28.640Z,11.90
2022-11-10T09:03:25.126Z,12.00
2022-11-10T09:06:18.914Z,12.10
2022-11-10T09:09:12.581Z,12.20
2022-11-10T09:12:06.260Z,12.30
2022-11-10T09:14:59.627Z,12.30
2022-11-10T09:17:53.292Z,12.50
2022-11-10T09:20:46.843Z,12.50
2022-11-10T09:23:40.313Z,12.60
2022-11-10T09:26:34.159Z,12.70
2022-11-10T09:29:27.994Z,12.80
2022-11-10T09:32:21.536Z,12.90
2022-11-10T09:35:15.442Z,12.90
2022-11-10T09:38:09.620Z,13.00
2022-11-10T09:41:08.860Z,13.00
2022-11-10T09:44:51.256Z,13.10
2022-11-10T09:48:19.004Z,13.20
2022-11-10T09:51:20.916Z,13.40
2022-11-10T09:54:45.898Z,13.40
2022-11-10T09:57:46.148Z,13.50
2022-11-10T10:00:50.945Z,13.60
2022-11-10T10:03:55.036Z,13.60
2022-11-10T10:07:11.807Z,13.60
2022-11-10T10:10:23.228Z,13.70
2022-11-10T10:13:43.844Z,13.80
2022-11-10T10:16:49.100Z,13.90
2022-11-10T10:19:58.536Z,14.10
2022-11-10T10:23:17.041Z,14.10
2022-11-10T10:26:18.988Z,14.20
2022-11-10T10:29:25.947Z,14.40
2022-11-10T10:32:22.443Z,14.50
2022-11-10T10:35:18.206Z,14.70
2022-11-10T10:38:36.879Z,14.90
2022-11-10T10:41:33.619Z,15.10
2022-11-10T10:44:27.280Z,15.50
2022-11-10T10:47:40.098Z,15.80
2022-11-10T10:50:42.929Z,16.20
2022-11-10T10:53:49.077Z,16.50
2022-11-10T10:56:42.667Z,16.70
2022-11-10T10:59:36.218Z,16.90
2022-11-10T11:02:33.054Z,17.10
2022-11-10T11:05:26.413Z,17.30
2022-11-10T11:08:20.753Z,17.60
2022-11-10T11:11:14.456Z,17.70
2022-11-10T11:14:14.033Z,17.70
2022-11-10T11:17:34.560Z,17.80
2022-11-10T11:20:57.995Z,18.10
2022-11-10T11:23:59.755Z,18.30
2022-11-10T11:27:11.192Z,18.50
2022-11-10T11:30:19.816Z,18.70
2022-11-10T11:33:21.679Z,18.90
2022-11-10T11:36:22.980Z,19.10
2022-11-10T11:39:50.110Z,19.10
2022-11-10T11:43:12.608Z,18.90
2022-11-10T11:46:37.577Z,19.00
2022-11-10T11:49:51.968Z,19.10
2022-11-10T11:53:07.970Z,19.10
2022-11-10T11:56:13.316Z,19.30
2022-11-10T11:59:39.084Z,19.50
2022-11-10T12:03:10.188Z,19.80
2022-11-10T12:06:28.728Z,19.90
2022-11-10T12:09:51.214Z,20.00
2022-11-10T12:13:16.874Z,20.10
2022-11-10T12:16:29.777Z,20.20
2022-11-10T12:20:24.034Z,20.00
2022-11-10T12:24:06.029Z,19.70
2022-11-10T12:27:31.014Z,19.60
2022-11-10T12:30:24.410Z,19.70
2022-11-10T12:34:09.529Z,20.00
2022-11-10T12:37:07.414Z,20.10
2022-11-10T12:40:25.861Z,20.40
2022-11-10T12:44:31.213Z,20.50
2022-11-10T12:47:32.055Z,20.80
2022-11-10T12:50:40.135Z,21.10
2022-11-10T12:53:39.396Z,21.40
2022-11-10T12:56:42.089Z,21.50
2022-11-10T12:59:54.223Z,21.70
2022-11-10T13:02:49.708Z,22.10
2022-11-10T13:05:45.440Z,22.30
2022-11-10T13:08:41.893Z,22.50
2022-11-10T13:11:37.519Z,22.60
2022-11-10T13:14:31.919Z,22.80
2022-11-10T13:17:28.453Z,22.90
2022-11-10T13:20:53.500Z,22.80
2022-11-10T13:23:46.722Z,22.80
2022-11-10T13:26:40.395Z,23.00
2022-11-10T13:29:42.670Z,23.00
2022-11-10T13:32:36.838Z,22.80
2022-11-10T13:35:30.328Z,22.80
2022-11-10T13:38:33.050Z,22.60
2022-11-10T13:41:27.358Z,22.40
2022-11-10T13:44:42.181Z,22.30
2022-11-10T13:47:51.516Z,22.40
2022-11-10T13:51:38.193Z,22.40
2022-11-10T13:55:02.902Z,22.40
2022-11-10T13:58:00.889Z,22.30
2022-11-10T14:01:26.043Z,22.10
2022-11-10T14:04:42.607Z,22.10
2022-11-10T14:07:46.203Z,22.10
2022-11-10T14:10:58.737Z,22.10
2022-11-10T14:14:12.309Z,22.10
2022-11-10T14:17:20.343Z,22.20
2022-11-10T14:20:47.398Z,22.10
2022-11-10T14:23:57.682Z,22.10
2022-11-10T14:26:58.939Z,22.00
2022-11-10T14:30:05.484Z,22.00
2022-11-10T14:33:03.875Z,21.90
2022-11-10T14:36:01.437Z,21.90
2022-11-10T14:38:55.154Z,21.70
2022-11-10T14:41:51.086Z,21.60
2022-11-10T14:44:44.504Z,21.60
2022-11-10T14:47:38.067Z,21.40
2022-11-10T14:50:35.337Z,21.20
2022-11-10T14:53:34.889Z,21.10
2022-11-10T14:56:32.574Z,20.90
2022-11-10T14:59:26.178Z,20.70
2022-11-10T15:02:20.059Z,20.40
2022-11-10T15:05:15.573Z,20.10
2022-11-10T15:08:10.245Z,19.90
2022-11-10T15:11:03.911Z,19.90
2022-11-10T15:13:57.362Z,19.80
2022-11-10T15:17:16.126Z,19.60
2022-11-10T15:20:35.436Z,19.40
2022-11-10T15:23:37.249Z,19.20
2022-11-10T15:26:40.000Z,19.00
2022-11-10T15:29:33.865Z,18.80
2022-11-10T15:32:43.130Z,18.80
2022-11-10T15:35:36.948Z,18.60
2022-11-10T15:38:32.086Z,18.50
2022-11-10T15:41:27.576Z,18.30
2022-11-10T15:44:26.258Z,18.10
2022-11-10T15:47:20.767Z,18.00
2022-11-10T15:50:14.245Z,17.80
2022-11-10T15:53:15.028Z,17.70
2022-11-10T15:56:09.239Z,17.50
2022-11-10T15:59:04.134Z,17.30
2022-11-10T16:01:57.910Z,17.20
2022-11-10T16:04:59.501Z,17.10
2022-11-10T16:07:53.289Z,16.90
2022-11-10T16:10:50.005Z,16.80
2022-11-10T16:13:45.098Z,16.60
2022-11-10T16:16:39.253Z,16.50
2022-11-10T16:19:32.560Z,16.30
2022-11-10T16:22:26.120Z,16.20
2022-11-10T16:25:25.220Z,16.10
2022-11-10T16:28:26.243Z,16.00
2022-11-10T16:31:21.960Z,15.90
2022-11-10T16:34:15.555Z,15.70
2022-11-10T16:37:12.567Z,15.60
2022-11-10T16:40:19.159Z,15.50
2022-11-10T16:43:18.896Z,15.40
2022-11-10T16:46:29.031Z,15.20
2022-11-10T16:49:34.621Z,15.10
2022-11-10T16:52:27.991Z,15.00
2022-11-10T16:55:21.334Z,14.90
2022-11-10T16:58:14.722Z,14.80
2022-11-10T17:01:23.961Z,14.70
2022-11-10T17:04:17.343Z,14.60
2022-11-10T17:07:14.781Z,14.50
2022-11-10T17:10:16.721Z,14.50
2022-11-10T17:13:11.629Z,14.30
2022-11-10T17:16:21.953Z,14.30
2022-11-10T17:19:25.846Z,14.20
2022-11-10T17:22:22.710Z,14.10
2022-11-10T17:25:29.083Z,14.00
2022-11-10T17:28:22.896Z,13.90
2022-11-10T17:31:16.338Z,13.80
2022-11-10T17:34:09.836Z,13.70
2022-11-10T17:37:04.875Z,13.60
2022-11-10T17:39:59.079Z,13.50
2022-11-10T17:42:52.635Z,13.50
2022-11-10T17:45:46.042Z,13.40
2022-11-10T17:48:39.363Z,13.30
2022-11-10T17:51:34.659Z,13.20
2022-11-10T17:54:28.261Z,13.10
2022-11-10T17:57:21.895Z,13.10
2022-11-10T18:00:17.819Z,13.00
2022-11-10T18:03:22.592Z,12.90
2022-11-10T18:06:19.203Z,12.80
2022-11-10T18:09:13.169Z,12.80
2022-11-10T18:12:08.157Z,12.70
2022-11-10T18:15:01.841Z,12.60
2022-11-10T18:18:00.088Z,12.50
2022-11-10T18:20:56.710Z,12.40
2022-11-10T18:23:50.374Z,12.40
2022-11-10T18:26:43.787Z,12.30
2022-11-10T18:29:37.081Z,12.20
2022-11-10T18:32:30.460Z,12.10
2022-11-10T18:35:24.556Z,12.10
2022-11-10T18:38:18.212Z,12.00
2022-11-10T18:41:30.295Z,11.90
2022-11-10T18:44:24.070Z,11.90
2022-11-10T18:47:17.872Z,11.80
2022-11-10T18:50:11.531Z,11.70
2022-11-10T18:53:05.271Z,11.70
2022-11-10T18:55:59.069Z,11.60
2022-11-10T18:58:56.686Z,11.50
2022-11-10T19:01:50.983Z,11.50
2022-11-10T19:04:44.599Z,11.40
2022-11-10T19:07:38.347Z,11.40
2022-11-10T19:10:31.716Z,11.30
2022-11-10T19:13:25.883Z,11.30
2022-11-10T19:16:20.001Z,11.20
2022-11-10T19:19:13.707Z,11.10
2022-11-10T19:22:07.253Z,11.10
2022-11-10T19:25:08.051Z,11.10
2022-11-10T19:28:02.872Z,11.00
2022-11-10T19:31:14.241Z,10.90
2022-11-10T19:34:07.748Z,10.80
2022-11-10T19:37:01.301Z,10.80
2022-11-10T19:39:54.898Z,10.70
2022-11-10T19:42:48.546Z,10.70
2022-11-10T19:45:42.221Z,10.60
2022-11-10T19:48:36.447Z,10.50
2022-11-10T19:51:30.148Z,10.50
2022-11-10T19:54:23.401Z,10.40
2022-11-10T19:57:16.938Z,10.40
2022-11-10T20:00:12.463Z,10.40
2022-11-10T20:03:11.339Z,10.30
2022-11-10T20:06:08.738Z,10.30
2022-11-10T20:09:02.131Z,10.30
2022-11-10T20:11:55.477Z,10.20
2022-11-10T20:14:48.943Z,10.20
2022-11-10T20:17:42.739Z,10.20
2022-11-10T20:20:39.032Z,10.10
2022-11-10T20:23:32.941Z,10.10
2022-11-10T20:26:26.613Z,10.00
2022-11-10T20:29:19.785Z,10.00
2022-11-10T20:32:13.356Z,10.00
2022-11-10T20:35:06.903Z,10.00
2022-11-10T20:38:00.289Z,9.90
2022-11-10T20:41:06.998Z,9.90
2022-11-10T20:44:00.425Z,9.80
2022-11-10T20:46:55.527Z,9.70
2022-11-10T20:49:49.282Z,9.70
2022-11-10T20:52:42.431Z,9.70
2022-11-10T20:55:53.041Z,9.60
2022-11-10T20:58:48.930Z,9.60
2022-11-10T21:01:42.725Z,9.60
2022-11-10T21:04:41.780Z,9.50
2022-11-10T21:07:36.376Z,9.40
2022-11-10T21:10:29.800Z,9.40
2022-11-10T21:13:25.453Z,9.40
2022-11-10T21:16:19.037Z,9.30
2022-11-10T21:19:12.659Z,9.30
2022-11-10T21:22:06.095Z,9.30
2022-11-10T21:24:59.377Z,10.00
2022-11-10T21:27:52.871Z,9.20
2022-11-10T21:30:46.014Z,9.10
2022-11-10T21:33:39.439Z,9.10
2022-11-10T21:36:33.061Z,9.10
2022-11-10T21:39:26.318Z,9.10
2022-11-10T21:42:21.680Z,9.10
2022-11-10T21:45:17.826Z,9.00
2022-11-10T21:48:10.993Z,9.00
2022-11-10T21:51:06.944Z,9.00
2022-11-10T21:54:00.517Z,9.00
2022-11-10T21:56:54.195Z,9.00
2022-11-10T21:59:47.801Z,9.00
2022-11-10T22:02:41.477Z,9.00
2022-11-10T22:05:35.072Z,8.90
2022-11-10T22:08:28.671Z,9.00
2022-11-10T22:11:40.510Z,8.90
2022-11-10T22:14:52.414Z,8.90
2022-11-10T22:18:04.537Z,8.80
2022-11-10T22:20:58.140Z,8.80
2022-11-10T22:24:09.645Z,8.80
2022-11-10T22:27:04.733Z,8.70
2022-11-10T22:29:58.255Z,8.70
2022-11-10T22:32:52.700Z,8.70
2022-11-10T22:35:45.986Z,8.80
2022-11-10T22:38:42.307Z,8.70
2022-11-10T22:41:54.043Z,8.70
2022-11-10T22:44:47.572Z,8.70
2022-11-10T22:47:59.805Z,8.70
2022-11-10T22:50:55.512Z,8.70
2022-11-10T22:53:49.061Z,8.70
2022-11-10T22:56:42.956Z,8.70
2022-11-10T22:59:36.036Z,8.70
2022-11-10T23:02:29.675Z,8.70
2022-11-10T23:05:23.302Z,8.70
2022-11-10T23:08:16.842Z,8.60
2022-11-10T23:11:19.479Z,8.60
2022-11-10T23:14:12.996Z,8.60
2022-11-10T23:17:07.769Z,8.60
2022-11-10T23:20:02.707Z,8.50
2022-11-10T23:22:56.338Z,8.60
2022-11-10T23:26:18.535Z,8.60
2022-11-10T23:29:12.146Z,8.50
2022-11-10T23:32:05.706Z,8.50
2022-11-10T23:34:59.015Z,8.40
2022-11-10T23:37:52.573Z,8.40
2022-11-10T23:40:46.182Z,8.40
2022-11-10T23:43:40.348Z,8.40
2022-11-10T23:46:33.868Z,8.40
2022-11-10T23:49:27.400Z,8.30
2022-11-10T23:52:20.855Z,8.30
2022-11-10T23:55:14.111Z,8.20
2022-11-10T23:58:07.661Z,8.20
